createdAt,value
2023-04-04T00:00:24.823Z,86.51
2023-04-04T00:03:32.352Z,86.92
2023-04-04T00:06:41.283Z,86.92
2023-04-04T00:09:48.785Z,86.61
2023-04-04T00:12:56.146Z,86.40
2023-04-04T00:16:03.359Z,85.88
2023-04-04T00:19:12.952Z,85.88
2023-04-04T00:22:20.013Z,85.66
2023-04-04T00:25:27.900Z,86.12
2023-04-04T00:28:38.325Z,86.65
2023-04-04T00:31:45.445Z,86.86
2023-04-04T00:34:53.323Z,87.17
2023-04-04T00:38:02.621Z,87.28
2023-04-04T00:41:09.690Z,87.38
2023-04-04T00:44:17.687Z,87.17
2023-04-04T00:47:26.785Z,87.32
2023-04-04T00:50:33.741Z,87.52
2023-04-04T00:53:41.389Z,87.84
2023-04-04T00:56:48.734Z,87.95
2023-04-04T00:59:57.763Z,87.74
2023-04-04T01:03:05.746Z,87.63
2023-04-04T01:06:13.160Z,87.74
2023-04-04T01:09:21.880Z,88.37
2023-04-04T01:12:29.629Z,88.47
2023-04-04T01:15:36.826Z,88.72
2023-04-04T01:18:45.557Z,89.04
2023-04-04T01:21:53.270Z,89.25
2023-04-04T01:25:00.680Z,89.25
2023-04-04T01:28:09.737Z,88.82
2023-04-04T01:31:17.100Z,88.82
2023-04-04T01:34:24.433Z,89.14
2023-04-04T01:37:31.996Z,89.14
2023-04-04T01:40:41.162Z,89.14
2023-04-04T01:43:49.222Z,89.07
2023-04-04T01:46:56.249Z,89.07
2023-04-04T01:50:05.294Z,88.66
2023-04-04T01:53:13.328Z,88.66
2023-04-04T01:56:20.508Z,88.97
2023-04-04T01:59:29.814Z,89.50
2023-04-04T02:02:37.262Z,90.12
2023-04-04T02:05:44.426Z,89.92
2023-04-04T02:08:53.675Z,90.02
2023-04-04T02:12:01.520Z,90.02
2023-04-04T02:15:08.631Z,90.34
2023-04-04T02:18:16.434Z,90.34
2023-04-04T02:21:25.255Z,90.44
2023-04-04T02:24:32.467Z,90.34
2023-04-04T02:27:40.187Z,90.44
2023-04-04T02:30:48.968Z,90.23
2023-04-04T02:33:56.379Z,90.44
2023-04-04T02:37:03.984Z,90.44
2023-04-04T02:40:12.781Z,90.66
2023-04-04T02:43:20.116Z,90.86
2023-04-04T02:46:27.657Z,90.76
2023-04-04T02:49:36.741Z,90.66
2023-04-04T02:52:44.410Z,90.76
2023-04-04T02:55:51.787Z,90.91
2023-04-04T02:59:01.058Z,91.07
2023-04-04T03:02:08.569Z,91.07
2023-04-04T03:05:16.156Z,91.07
2023-04-04T03:08:24.092Z,90.23
2023-04-04T03:11:33.032Z,90.17
2023-04-04T03:14:40.595Z,90.38
2023-04-04T03:17:48.642Z,90.69
2023-04-04T03:20:57.180Z,90.80
2023-04-04T03:24:04.949Z,91.11
2023-04-04T03:27:12.813Z,91.53
2023-04-04T03:30:21.301Z,91.39
2023-04-04T03:33:28.966Z,91.22
2023-04-04T03:36:36.053Z,91.43
2023-04-04T03:39:44.875Z,91.53
2023-04-04T03:42:52.948Z,91.64
2023-04-04T03:46:00.378Z,92.06
2023-04-04T03:49:07.537Z,92.06
2023-04-04T03:52:16.563Z,92.06
2023-04-04T03:55:24.253Z,91.85
2023-04-04T03:58:31.839Z,91.33
2023-04-04T04:01:40.367Z,92.00
2023-04-04T04:04:49.675Z,92.46
2023-04-04T04:07:57.264Z,92.88
2023-04-04T04:11:05.584Z,93.19
2023-04-04T04:14:13.314Z,93.41
2023-04-04T04:17:20.768Z,93.51
2023-04-04T04:20:29.733Z,93.57
2023-04-04T04:23:37.564Z,93.62
2023-04-04T04:26:45.012Z,93.51
2023-04-04T04:29:52.840Z,93.51
2023-04-04T04:33:01.900Z,93.62
2023-04-04T04:36:09.124Z,93.41
2023-04-04T04:39:16.912Z,93.51
2023-04-04T04:42:25.744Z,93.72
2023-04-04T04:45:33.465Z,94.10
2023-04-04T04:48:40.591Z,93.99
2023-04-04T04:51:49.301Z,93.79
2023-04-04T04:54:57.574Z,94.42
2023-04-04T04:58:05.614Z,94.73
2023-04-04T05:01:14.450Z,94.69
2023-04-04T05:04:22.211Z,94.48
2023-04-04T05:07:30.458Z,94.17
2023-04-04T05:10:39.110Z,93.63
2023-04-04T05:13:47.087Z,93.59
2023-04-04T05:16:54.546Z,93.13
2023-04-04T05:20:02.008Z,92.71
2023-04-04T05:23:11.092Z,92.96
2023-04-04T05:26:18.290Z,92.92
2023-04-04T05:29:25.505Z,92.61
2023-04-04T05:32:34.530Z,92.61
2023-04-04T05:35:42.004Z,93.13
2023-04-04T05:38:49.305Z,93.34
2023-04-04T05:41:58.009Z,93.44
2023-04-04T05:45:05.561Z,93.40
2023-04-04T05:48:12.947Z,93.19
2023-04-04T05:51:21.561Z,93.40
2023-04-04T05:54:28.738Z,93.72
2023-04-04T05:57:36.590Z,93.51
2023-04-04T06:00:45.835Z,93.40
2023-04-04T06:03:54.597Z,93.78
2023-04-04T06:07:02.457Z,94.10
2023-04-04T06:10:09.737Z,94.31
2023-04-04T06:13:18.611Z,94.31
2023-04-04T06:16:26.340Z,93.84
2023-04-04T06:19:33.688Z,93.43
2023-04-04T06:22:42.400Z,93.01
2023-04-04T06:25:49.371Z,92.44
2023-04-04T06:28:56.760Z,91.71
2023-04-04T06:32:05.735Z,90.93
2023-04-04T06:35:12.673Z,89.98
2023-04-04T06:38:20.496Z,89.25
2023-04-04T06:41:27.858Z,89.67
2023-04-04T06:44:36.268Z,89.84
2023-04-04T06:47:43.793Z,89.53
2023-04-04T06:50:51.301Z,89.28
2023-04-04T06:54:00.173Z,88.75
2023-04-04T06:57:07.667Z,88.44
2023-04-04T07:00:14.955Z,87.98
2023-04-04T07:03:23.682Z,87.88
2023-04-04T07:06:31.133Z,87.42
2023-04-04T07:09:38.668Z,87.31
2023-04-04T07:12:47.558Z,87.59
2023-04-04T07:15:55.210Z,86.85
2023-04-04T07:19:02.542Z,86.40
2023-04-04T07:22:11.363Z,85.56
2023-04-04T07:25:18.733Z,85.35
2023-04-04T07:28:26.443Z,85.52
2023-04-04T07:31:33.652Z,83.75
2023-04-04T07:34:42.381Z,82.67
2023-04-04T07:37:50.118Z,82.25
2023-04-04T07:40:57.356Z,81.73
2023-04-04T07:44:05.957Z,81.69
2023-04-04T07:47:14.095Z,79.88
2023-04-04T07:50:21.366Z,80.30
2023-04-04T07:53:29.980Z,80.40
2023-04-04T07:56:37.830Z,78.80
2023-04-04T07:59:44.847Z,77.76
2023-04-04T08:02:54.274Z,76.47
2023-04-04T08:06:01.937Z,73.86
2023-04-04T08:09:08.958Z,72.72
2023-04-04T08:12:16.672Z,73.83
2023-04-04T08:15:25.550Z,73.28
2023-04-04T08:18:32.671Z,71.20
2023-04-04T08:21:40.405Z,71.72
2023-04-04T08:24:48.735Z,72.45
2023-04-04T08:27:56.249Z,72.20
2023-04-04T08:31:03.906Z,72.52
2023-04-04T08:34:12.428Z,71.65
2023-04-04T08:37:19.975Z,71.23
2023-04-04T08:40:27.690Z,72.07
2023-04-04T08:43:36.151Z,71.62
2023-04-04T08:46:43.851Z,69.61
2023-04-04T08:49:51.661Z,67.74
2023-04-04T08:52:59.225Z,68.26
2023-04-04T08:56:08.539Z,69.82
2023-04-04T08:59:15.941Z,67.30
2023-04-04T09:02:23.616Z,66.15
2023-04-04T09:05:33.035Z,65.91
2023-04-04T09:08:40.464Z,65.19
2023-04-04T09:11:48.001Z,64.95
2023-04-04T09:14:57.272Z,61.63
2023-04-04T09:18:04.839Z,63.68
2023-04-04T09:21:12.241Z,62.64
2023-04-04T09:24:21.394Z,66.47
2023-04-04T09:27:28.677Z,65.75
2023-04-04T09:30:36.250Z,64.69
2023-04-04T09:33:43.686Z,64.79
2023-04-04T09:36:52.870Z,64.79
2023-04-04T09:40:00.284Z,63.31
2023-04-04T09:43:07.803Z,64.76
2023-04-04T09:46:17.085Z,61.72
2023-04-04T09:49:24.449Z,60.79
2023-04-04T09:52:31.986Z,62.01
2023-04-04T09:55:41.210Z,62.63
2023-04-04T09:59:02.301Z,59.42
2023-04-04T10:01:53.376Z,61.59
2023-04-04T10:05:06.345Z,68.49
2023-04-04T10:08:03.336Z,65.75
2023-04-04T10:11:12.605Z,65.58
2023-04-04T10:14:21.562Z,62.82
2023-04-04T10:17:29.228Z,62.69
2023-04-04T10:20:36.714Z,58.33
2023-04-04T10:23:44.200Z,58.25
2023-04-04T10:26:53.242Z,60.50
2023-04-04T10:30:00.704Z,57.89
2023-04-04T10:33:08.527Z,57.29
2023-04-04T10:36:17.543Z,58.46
2023-04-04T10:39:25.036Z,58.98
2023-04-04T10:42:33.009Z,56.29
2023-04-04T10:45:41.843Z,60.78
2023-04-04T10:48:49.704Z,61.35
2023-04-04T10:51:57.602Z,55.20
2023-04-04T10:55:06.175Z,58.50
2023-04-04T10:58:13.833Z,59.98
2023-04-04T11:01:21.933Z,62.81
2023-04-04T11:04:29.861Z,54.56
2023-04-04T11:07:39.035Z,62.88
2023-04-04T11:10:46.434Z,59.42
2023-04-04T11:13:53.810Z,59.06
2023-04-04T11:17:02.428Z,57.29
2023-04-04T11:20:09.846Z,53.71
2023-04-04T11:23:17.397Z,58.45
2023-04-04T11:26:26.234Z,54.90
2023-04-04T11:29:34.023Z,56.52
2023-04-04T11:32:41.218Z,51.21
2023-04-04T11:35:50.869Z,56.34
2023-04-04T11:38:58.842Z,58.96
2023-04-04T11:42:05.945Z,52.34
2023-04-04T11:45:13.962Z,53.89
2023-04-04T11:48:22.823Z,53.94
2023-04-04T11:51:30.143Z,53.11
2023-04-04T11:54:37.854Z,52.58
2023-04-04T11:57:46.540Z,51.75
2023-04-04T12:00:54.041Z,51.23
2023-04-04T12:04:01.861Z,51.75
2023-04-04T12:07:10.597Z,54.79
2023-04-04T12:10:17.973Z,51.55
2023-04-04T12:13:25.411Z,54.05
2023-04-04T12:16:34.576Z,55.15
2023-04-04T12:19:41.891Z,51.45
2023-04-04T12:22:50.526Z,47.56
2023-04-04T12:25:58.511Z,48.92
2023-04-04T12:29:06.966Z,48.53
2023-04-04T12:32:14.381Z,49.10
2023-04-04T12:35:22.396Z,50.52
2023-04-04T12:38:31.272Z,49.90
2023-04-04T12:41:38.717Z,49.08
2023-04-04T12:44:46.328Z,53.71
2023-04-04T12:47:54.942Z,50.01
2023-04-04T12:51:02.757Z,51.63
2023-04-04T12:54:10.467Z,55.41
2023-04-04T12:57:18.919Z,52.71
2023-04-04T13:00:26.951Z,47.39
2023-04-04T13:03:34.672Z,50.40
2023-04-04T13:06:43.639Z,53.12
2023-04-04T13:09:51.193Z,50.76
2023-04-04T13:12:58.999Z,54.92
2023-04-04T13:16:06.567Z,50.87
2023-04-04T13:19:15.803Z,45.68
2023-04-04T13:22:23.284Z,48.39
2023-04-04T13:25:31.425Z,49.84
2023-04-04T13:28:40.167Z,45.93
2023-04-04T13:31:48.065Z,49.55
2023-04-04T13:34:55.886Z,48.29
2023-04-04T13:38:04.178Z,47.84
2023-04-04T13:41:12.136Z,48.22
2023-04-04T13:44:19.856Z,43.07
2023-04-04T13:47:28.421Z,41.80
2023-04-04T13:50:36.276Z,41.82
2023-04-04T13:53:43.983Z,43.98
2023-04-04T13:56:51.225Z,50.94
2023-04-04T14:00:00.362Z,43.75
2023-04-04T14:03:07.948Z,43.36
2023-04-04T14:06:15.335Z,46.15
2023-04-04T14:09:24.579Z,46.83
2023-04-04T14:12:32.003Z,42.97
2023-04-04T14:15:40.056Z,43.61
2023-04-04T14:18:49.317Z,47.02
2023-04-04T14:21:56.823Z,49.24
2023-04-04T14:25:04.221Z,44.02
2023-04-04T14:28:12.739Z,44.14
2023-04-04T14:31:20.723Z,49.47
2023-04-04T14:34:28.633Z,48.93
2023-04-04T14:37:35.724Z,47.19
2023-04-04T14:40:45.087Z,51.48
2023-04-04T14:43:52.737Z,46.94
2023-04-04T14:46:59.886Z,45.40
2023-04-04T14:50:08.813Z,51.31
2023-04-04T14:53:16.779Z,46.46
2023-04-04T14:56:24.138Z,43.38
2023-04-04T14:59:33.657Z,43.44
2023-04-04T15:02:41.622Z,46.83
2023-04-04T15:05:48.698Z,49.69
2023-04-04T15:08:57.985Z,44.47
2023-04-04T15:12:05.422Z,49.51
2023-04-04T15:15:12.938Z,48.56
2023-04-04T15:18:20.952Z,44.78
2023-04-04T15:21:29.431Z,49.19
2023-04-04T15:24:37.265Z,48.89
2023-04-04T15:27:44.524Z,44.68
2023-04-04T15:30:53.690Z,46.98
2023-04-04T15:34:01.019Z,44.20
2023-04-04T15:37:08.389Z,45.56
2023-04-04T15:40:17.395Z,47.70
2023-04-04T15:43:24.773Z,46.03
2023-04-04T15:46:32.110Z,44.98
2023-04-04T15:49:41.348Z,47.04
2023-04-04T15:52:48.820Z,45.83
2023-04-04T15:55:56.132Z,48.09
2023-04-04T15:59:04.916Z,48.89
2023-04-04T16:02:11.902Z,49.09
2023-04-04T16:05:19.361Z,48.35
2023-04-04T16:08:26.710Z,45.89
2023-04-04T16:11:35.277Z,44.98
2023-04-04T16:14:43.055Z,45.34
2023-04-04T16:17:50.874Z,44.92
2023-04-04T16:20:59.797Z,44.33
2023-04-04T16:24:07.527Z,47.41
2023-04-04T16:27:15.278Z,45.89
2023-04-04T16:30:23.781Z,45.91
2023-04-04T16:33:31.732Z,45.71
2023-04-04T16:36:39.170Z,48.46
2023-04-04T16:39:47.902Z,47.44
2023-04-04T16:42:55.279Z,46.73
2023-04-04T16:46:02.610Z,48.38
2023-04-04T16:49:09.785Z,47.27
2023-04-04T16:52:18.865Z,49.13
2023-04-04T16:55:26.097Z,49.35
2023-04-04T16:58:33.418Z,49.05
2023-04-04T17:01:42.538Z,48.63
2023-04-04T17:04:49.965Z,50.10
2023-04-04T17:07:57.154Z,49.19
2023-04-04T17:11:06.261Z,50.97
2023-04-04T17:14:14.550Z,51.10
2023-04-04T17:17:22.556Z,52.95
2023-04-04T17:20:33.647Z,53.50
2023-04-04T17:23:41.746Z,56.60
2023-04-04T17:26:49.187Z,54.14
2023-04-04T17:30:01.716Z,55.20
2023-04-04T17:33:00.517Z,58.40
2023-04-04T17:36:07.602Z,57.37
2023-04-04T17:39:15.681Z,58.72
2023-04-04T17:42:25.165Z,57.48
2023-04-04T17:45:32.349Z,56.54
2023-04-04T17:48:40.066Z,56.24
2023-04-04T17:51:49.254Z,58.33
2023-04-04T17:54:56.397Z,58.64
2023-04-04T17:58:04.041Z,61.12
2023-04-04T18:01:13.034Z,60.40
2023-04-04T18:04:20.630Z,61.57
2023-04-04T18:07:28.617Z,59.70
2023-04-04T18:10:35.919Z,60.32
2023-04-04T18:13:45.061Z,63.12
2023-04-04T18:16:52.606Z,63.74
2023-04-04T18:19:59.780Z,62.49
2023-04-04T18:23:09.276Z,60.74
2023-04-04T18:26:16.877Z,63.25
2023-04-04T18:29:24.459Z,61.18
2023-04-04T18:32:33.826Z,60.97
2023-04-04T18:35:41.134Z,61.49
2023-04-04T18:38:48.658Z,62.01
2023-04-04T18:41:57.872Z,63.15
2023-04-04T18:45:05.342Z,60.48
2023-04-04T18:48:13.477Z,62.55
2023-04-04T18:51:23.814Z,62.97
2023-04-04T18:54:31.078Z,64.62
2023-04-04T18:57:38.893Z,60.89
2023-04-04T19:00:48.073Z,62.06
2023-04-04T19:03:56.674Z,63.72
2023-04-04T19:07:04.265Z,64.03
2023-04-04T19:10:12.081Z,66.03
2023-04-04T19:13:21.012Z,66.86
2023-04-04T19:16:28.660Z,66.47
2023-04-04T19:19:36.577Z,65.58
2023-04-04T19:22:45.432Z,63.29
2023-04-04T19:25:53.455Z,66.82
2023-04-04T19:29:02.055Z,66.33
2023-04-04T19:32:10.814Z,67.16
2023-04-04T19:35:17.931Z,66.67
2023-04-04T19:38:25.899Z,68.68
2023-04-04T19:41:33.285Z,68.88
2023-04-04T19:44:42.168Z,69.12
2023-04-04T19:47:49.927Z,68.71
2023-04-04T19:50:57.329Z,69.47
2023-04-04T19:54:06.098Z,69.15
2023-04-04T19:57:13.872Z,69.89
2023-04-04T20:00:20.887Z,70.40
2023-04-04T20:03:30.204Z,70.61
2023-04-04T20:06:37.882Z,70.95
2023-04-04T20:09:44.872Z,70.95
2023-04-04T20:12:54.071Z,71.06
2023-04-04T20:16:02.047Z,72.52
2023-04-04T20:19:09.238Z,72.45
2023-04-04T20:22:17.255Z,73.59
2023-04-04T20:25:26.176Z,74.43
2023-04-04T20:28:33.674Z,74.95
2023-04-04T20:31:41.418Z,74.74
2023-04-04T20:34:50.718Z,74.66
2023-04-04T20:37:58.130Z,73.63
2023-04-04T20:41:05.548Z,74.15
2023-04-04T20:44:14.490Z,74.87
2023-04-04T20:47:21.899Z,75.40
2023-04-04T20:50:29.339Z,75.32
2023-04-04T20:53:38.369Z,74.70
2023-04-04T20:56:45.328Z,75.32
2023-04-04T20:59:52.996Z,74.66
2023-04-04T21:03:02.146Z,76.23
2023-04-04T21:06:09.050Z,76.86
2023-04-04T21:09:16.909Z,76.89
2023-04-04T21:12:24.525Z,76.86
2023-04-04T21:15:32.959Z,75.64
2023-04-04T21:18:40.291Z,76.06
2023-04-04T21:21:47.583Z,77.10
2023-04-04T21:24:56.423Z,76.57
2023-04-04T21:28:04.161Z,76.47
2023-04-04T21:31:11.712Z,74.29
2023-04-04T21:34:20.568Z,74.21
2023-04-04T21:37:28.192Z,75.32
2023-04-04T21:40:35.597Z,77.51
2023-04-04T21:43:44.304Z,79.33
2023-04-04T21:46:51.911Z,79.74
2023-04-04T21:49:59.136Z,79.36
2023-04-04T21:53:06.504Z,78.84
2023-04-04T21:56:15.490Z,79.05
2023-04-04T21:59:23.189Z,78.70
2023-04-04T22:02:30.672Z,78.53
2023-04-04T22:05:39.730Z,79.15
2023-04-04T22:08:47.363Z,80.44
2023-04-04T22:11:54.829Z,80.86
2023-04-04T22:15:03.633Z,80.96
2023-04-04T22:18:11.352Z,81.28
2023-04-04T22:21:18.443Z,81.28
2023-04-04T22:24:27.485Z,81.07
2023-04-04T22:27:35.230Z,80.96
2023-04-04T22:30:42.782Z,80.86
2023-04-04T22:33:50.568Z,80.65
2023-04-04T22:36:59.620Z,80.44
2023-04-04T22:40:06.542Z,80.90
2023-04-04T22:43:14.272Z,79.96
2023-04-04T22:46:23.194Z,80.41
2023-04-04T22:49:30.246Z,80.93
2023-04-04T22:52:37.921Z,81.56
2023-04-04T22:55:46.642Z,82.60
2023-04-04T22:58:54.046Z,83.23
2023-04-04T23:02:01.631Z,82.57
2023-04-04T23:05:10.369Z,82.15
2023-04-04T23:08:17.625Z,82.57
2023-04-04T23:11:25.287Z,82.57
2023-04-04T23:14:32.320Z,81.98
2023-04-04T23:17:41.524Z,82.19
2023-04-04T23:20:49.213Z,81.98
2023-04-04T23:23:56.608Z,80.76
2023-04-04T23:27:05.394Z,81.39
2023-04-04T23:30:12.598Z,81.01
2023-04-04T23:33:20.112Z,80.49
2023-04-04T23:36:29.003Z,81.43
2023-04-04T23:39:36.343Z,82.16
2023-04-04T23:42:43.599Z,82.79
2023-04-04T23:45:52.595Z,82.47
2023-04-04T23:48:59.874Z,82.23
2023-04-04T23:52:07.156Z,82.06
2023-04-04T23:55:15.955Z,82.58
2023-04-04T23:58:23.638Z,82.79
